Terminal Aerodrome Forecast
Issued by NWS

Home | Current Version | Previous Version | Text Only | Print | Product List | Glossary On
Versions: 1 2 3 4 5 6 7 8 9 10 11 12 13 14
466
FTUS46 KSGX 191736
TAFSNA
TAF
KSNA 191736Z 1918/2018 24012KT P6SM SCT025 SCT035
     FM200300 VRB04KT P6SM SKC=

USA.gov is the U.S. government's official web portal to all federal, state and local government web resources and services.